Time;durP1;ratioP1;P1;durP2;ratioP2;P2;SDS_P1;SDS_P2;PMS_P1;PMS_P2;Temp;Humidity;BMP_temperature;BMP_pressure;BME280_temperature;BME280_humidity;BME280_pressure;Samples;Min_cycle;Max_cycle;Signal;HPM_P1;HPM_P2
2022/02/18 00:00:23;;;;;;;7.88;4.03;;;9.10;93.80;;;;;;5106706;28;20545;-65
2022/02/18 00:02:50;;;;;;;7.95;2.63;;;9.20;93.80;;;;;;5113987;28;20550;-65
2022/02/18 00:05:17;;;;;;;7.85;3.40;;;9.10;93.60;;;;;;5105006;28;20224;-65
2022/02/18 00:07:44;;;;;;;8.05;4.07;;;9.20;93.70;;;;;;5100261;27;20249;-65
2022/02/18 00:10:11;;;;;;;8.73;4.32;;;9.10;93.60;;;;;;5113124;27;20310;-64
2022/02/18 00:12:39;;;;;;;6.82;2.90;;;9.10;93.40;;;;;;5106020;28;20216;-64
2022/02/18 00:15:07;;;;;;;10.57;4.03;;;9.10;93.50;;;;;;5107487;28;20254;-64
2022/02/18 00:17:34;;;;;;;15.32;8.38;;;9.10;93.30;;;;;;5101900;28;20298;-65
2022/02/18 00:20:01;;;;;;;6.70;2.40;;;9.10;93.40;;;;;;5113100;27;20225;-65
2022/02/18 00:22:28;;;;;;;8.88;5.40;;;9.10;93.10;;;;;;5112092;27;20666;-65
2022/02/18 00:24:55;;;;;;;5.35;2.58;;;9.10;93.50;;;;;;5113670;28;20222;-65
2022/02/18 00:27:22;;;;;;;6.57;2.47;;;9.10;93.50;;;;;;5103926;28;20232;-65
2022/02/18 00:29:50;;;;;;;8.05;4.05;;;9.20;93.40;;;;;;5105921;28;20234;-65
2022/02/18 00:32:17;;;;;;;7.90;3.53;;;9.20;93.40;;;;;;5101684;28;20298;-65
2022/02/18 00:34:44;;;;;;;8.52;4.82;;;9.10;93.10;;;;;;5108075;27;20226;-65
2022/02/18 00:37:11;;;;;;;10.20;3.20;;;9.10;93.40;;;;;;5101617;28;20344;-65
2022/02/18 00:39:38;;;;;;;12.00;5.80;;;9.10;93.30;;;;;;5109318;28;20219;-65
2022/02/18 00:42:05;;;;;;;8.00;4.18;;;9.10;93.30;;;;;;5098834;28;20445;-64
2022/02/18 00:44:32;;;;;;;15.05;8.25;;;9.10;93.30;;;;;;5096733;28;20581;-65
2022/02/18 00:47:00;;;;;;;4.05;3.03;;;9.10;93.40;;;;;;5101490;28;20219;-65
2022/02/18 00:49:27;;;;;;;6.78;2.03;;;9.20;93.40;;;;;;5107031;28;20229;-65
2022/02/18 00:51:57;;;;;;;11.52;5.28;;;9.20;93.40;;;;;;5106200;28;20220;-65
2022/02/18 00:54:24;;;;;;;7.13;4.10;;;9.10;93.40;;;;;;5108878;28;20298;-64
2022/02/18 00:56:51;;;;;;;9.43;3.55;;;9.10;93.40;;;;;;5101914;28;20224;-65
2022/02/18 00:59:18;;;;;;;4.47;2.35;;;9.20;93.40;;;;;;5105936;28;20238;-64
2022/02/18 01:01:45;;;;;;;5.60;2.00;;;9.20;93.40;;;;;;5104282;28;20230;-64
2022/02/18 01:04:13;;;;;;;10.23;6.07;;;9.20;93.40;;;;;;5097127;28;20219;-64
2022/02/18 01:06:48;;;;;;;6.95;3.53;;;9.20;93.50;;;;;;5101183;28;20228;-64
2022/02/18 01:09:15;;;;;;;9.38;5.53;;;9.20;93.60;;;;;;5111731;27;20229;-64
2022/02/18 01:11:42;;;;;;;7.93;2.70;;;9.20;93.70;;;;;;5112908;28;20233;-64
2022/02/18 01:14:09;;;;;;;5.60;2.40;;;9.10;93.70;;;;;;5098741;28;20230;-64
2022/02/18 01:16:35;;;;;;;7.07;2.20;;;9.10;93.60;;;;;;5100496;28;20219;-64
2022/02/18 01:19:02;;;;;;;12.20;5.53;;;9.10;93.60;;;;;;5112716;28;20223;-64
2022/02/18 01:21:30;;;;;;;22.15;12.85;;;9.10;93.70;;;;;;5098422;28;20224;-64
2022/02/18 01:23:57;;;;;;;21.88;11.00;;;9.10;93.80;;;;;;5099530;28;20588;-64
2022/02/18 01:26:24;;;;;;;9.05;4.88;;;9.10;93.90;;;;;;5111443;28;20225;-64
2022/02/18 01:28:51;;;;;;;7.88;3.85;;;9.10;94.00;;;;;;5100389;28;20241;-64
2022/02/18 01:31:18;;;;;;;6.57;3.95;;;9.10;93.90;;;;;;5098281;28;20886;-64
2022/02/18 01:33:44;;;;;;;25.83;15.77;;;9.10;93.80;;;;;;5104760;28;20224;-64
2022/02/18 01:36:11;;;;;;;17.27;7.25;;;9.10;93.70;;;;;;5105989;28;20223;-64
2022/02/18 01:38:41;;;;;;;9.43;4.72;;;9.10;93.90;;;;;;5100488;28;20234;-64
2022/02/18 01:41:08;;;;;;;20.50;9.02;;;9.10;93.80;;;;;;5098663;28;20220;-64
2022/02/18 01:43:37;;;;;;;6.03;2.70;;;9.10;93.90;;;;;;5107228;28;20223;-64
2022/02/18 01:46:04;;;;;;;14.30;6.03;;;9.00;93.90;;;;;;5109852;28;20230;-64
2022/02/18 01:48:31;;;;;;;25.05;11.93;;;9.00;93.90;;;;;;5105073;28;20700;-64
2022/02/18 01:50:58;;;;;;;14.20;8.45;;;9.10;93.90;;;;;;5116527;27;20241;-64
2022/02/18 01:53:25;;;;;;;10.68;4.82;;;9.10;93.90;;;;;;5108594;28;20223;-64
2022/02/18 01:55:54;;;;;;;14.77;8.90;;;9.10;93.70;;;;;;5113262;28;20240;-64
2022/02/18 01:58:24;;;;;;;29.13;14.13;;;9.00;93.70;;;;;;5105922;28;20572;-64
2022/02/18 02:00:52;;;;;;;11.73;6.65;;;9.00;93.60;;;;;;5102524;28;20223;-64
2022/02/18 02:03:20;;;;;;;9.85;4.60;;;9.00;93.50;;;;;;5104702;28;20224;-64
2022/02/18 02:05:48;;;;;;;13.50;7.68;;;9.00;93.40;;;;;;5109710;27;20235;-64
2022/02/18 02:08:14;;;;;;;8.88;4.47;;;8.90;93.30;;;;;;5106665;27;20223;-64
2022/02/18 02:10:43;;;;;;;9.60;4.88;;;9.00;93.40;;;;;;5115569;28;20230;-64
2022/02/18 02:13:11;;;;;;;9.70;5.13;;;9.00;93.40;;;;;;5108752;28;20237;-64
2022/02/18 02:15:38;;;;;;;13.25;8.43;;;9.00;93.30;;;;;;5110934;27;20216;-64
2022/02/18 02:18:05;;;;;;;6.05;3.75;;;9.00;93.40;;;;;;5107716;27;20218;-65
2022/02/18 02:20:32;;;;;;;7.38;4.57;;;9.00;93.40;;;;;;5110177;28;20224;-64
2022/02/18 02:23:00;;;;;;;14.50;7.63;;;9.00;93.40;;;;;;5107880;28;20223;-64
2022/02/18 02:25:34;;;;;;;7.82;4.38;;;9.00;93.40;;;;;;5109381;27;20228;-64
2022/02/18 02:28:01;;;;;;;10.95;4.75;;;9.00;93.40;;;;;;5109171;28;20229;-64
2022/02/18 02:30:28;;;;;;;5.97;4.38;;;9.00;93.40;;;;;;5104323;27;20224;-64
2022/02/18 02:32:55;;;;;;;9.05;5.95;;;9.00;93.50;;;;;;5108866;28;20215;-64
2022/02/18 02:35:22;;;;;;;16.65;8.60;;;9.00;93.60;;;;;;5108167;28;20227;-64
2022/02/18 02:37:49;;;;;;;10.85;5.50;;;9.00;93.60;;;;;;5108730;27;20692;-64
2022/02/18 02:40:18;;;;;;;28.15;16.02;;;9.10;93.70;;;;;;5102488;28;20237;-64
2022/02/18 02:42:45;;;;;;;9.93;6.60;;;9.10;93.80;;;;;;5101325;28;21000;-65
2022/02/18 02:45:12;;;;;;;10.05;4.15;;;9.10;93.80;;;;;;5111841;27;20231;-64
2022/02/18 02:47:40;;;;;;;6.45;3.70;;;9.10;93.80;;;;;;5115080;27;20241;-64
2022/02/18 02:50:07;;;;;;;9.82;3.53;;;9.00;93.80;;;;;;5105437;28;20219;-64
2022/02/18 02:52:34;;;;;;;24.30;10.98;;;9.00;93.80;;;;;;5104253;28;20575;-64
2022/02/18 02:55:01;;;;;;;7.32;3.95;;;9.00;93.90;;;;;;5113912;27;20233;-64
2022/02/18 02:57:29;;;;;;;8.00;3.30;;;9.00;94.00;;;;;;5102319;27;20224;-64
2022/02/18 02:59:56;;;;;;;7.88;3.22;;;8.90;94.10;;;;;;5108309;28;20543;-64
2022/02/18 03:02:23;;;;;;;6.50;3.20;;;9.00;94.30;;;;;;5106959;28;20680;-64
2022/02/18 03:04:55;;;;;;;10.52;5.57;;;9.00;94.60;;;;;;5101205;28;20211;-64
2022/02/18 03:07:24;;;;;;;7.90;3.25;;;8.90;94.20;;;;;;5101332;28;20232;-64
2022/02/18 03:09:51;;;;;;;7.05;2.70;;;9.00;94.30;;;;;;5101367;28;20219;-64
2022/02/18 03:12:18;;;;;;;12.32;3.80;;;9.00;94.30;;;;;;5114642;28;20564;-64
2022/02/18 03:14:46;;;;;;;8.40;3.95;;;8.90;94.30;;;;;;5101133;28;20238;-64
2022/02/18 03:17:13;;;;;;;10.48;3.15;;;8.90;94.40;;;;;;5114781;27;20552;-64
2022/02/18 03:19:40;;;;;;;4.80;4.28;;;8.80;94.20;;;;;;5106308;28;20228;-64
2022/02/18 03:22:07;;;;;;;7.60;4.55;;;8.80;94.40;;;;;;5104673;28;20223;-65
2022/02/18 03:24:34;;;;;;;10.48;6.53;;;8.80;94.40;;;;;;5106032;28;20250;-64
2022/02/18 03:27:01;;;;;;;6.15;3.00;;;8.80;94.50;;;;;;5107934;27;20219;-65
2022/02/18 03:29:28;;;;;;;7.95;2.65;;;8.80;94.50;;;;;;5101983;28;20219;-64
2022/02/18 03:31:56;;;;;;;10.55;6.00;;;8.80;94.60;;;;;;5100534;28;20227;-64
2022/02/18 03:34:23;;;;;;;6.82;3.83;;;8.90;94.70;;;;;;5105714;28;20696;-64
2022/02/18 03:36:53;;;;;;;9.75;3.35;;;8.80;94.60;;;;;;5107194;27;20226;-64
2022/02/18 03:39:22;;;;;;;9.27;3.60;;;8.80;94.80;;;;;;5103446;28;20235;-64
2022/02/18 03:41:49;;;;;;;3.50;2.42;;;8.80;94.70;;;;;;5099830;28;20227;-64
2022/02/18 03:44:17;;;;;;;16.38;7.68;;;8.80;94.60;;;;;;5104005;27;20223;-64
2022/02/18 03:46:44;;;;;;;5.40;4.05;;;8.80;94.60;;;;;;5101040;28;20643;-64
2022/02/18 03:49:12;;;;;;;7.05;3.97;;;8.80;94.70;;;;;;5114132;27;20215;-64
2022/02/18 03:51:39;;;;;;;6.00;3.40;;;8.80;94.80;;;;;;5098078;28;20234;-64
2022/02/18 03:54:06;;;;;;;10.77;3.42;;;8.80;94.90;;;;;;5104415;28;20218;-64
2022/02/18 03:56:33;;;;;;;14.82;7.47;;;8.80;94.90;;;;;;5109280;28;20306;-64
2022/02/18 03:59:01;;;;;;;15.57;7.28;;;8.80;95.00;;;;;;5104775;28;20312;-64
2022/02/18 04:01:27;;;;;;;44.17;26.55;;;8.80;95.20;;;;;;5100134;28;20231;-64
2022/02/18 04:03:54;;;;;;;42.30;24.77;;;8.80;95.50;;;;;;5101330;27;20227;-64
2022/02/18 04:06:23;;;;;;;5.50;2.90;;;8.80;95.70;;;;;;5107023;28;20565;-64
2022/02/18 04:08:50;;;;;;;33.25;17.33;;;8.80;95.50;;;;;;5105132;28;20222;-64
2022/02/18 04:11:16;;;;;;;7.72;3.90;;;8.80;95.50;;;;;;5108502;28;20284;-64
2022/02/18 04:13:43;;;;;;;12.80;5.70;;;8.80;95.50;;;;;;5095863;28;20219;-64
2022/02/18 04:16:10;;;;;;;5.70;2.92;;;8.80;95.60;;;;;;5108597;28;20448;-64
2022/02/18 04:18:37;;;;;;;9.48;3.00;;;8.80;95.50;;;;;;5112818;27;20233;-64
2022/02/18 04:21:04;;;;;;;9.85;5.45;;;8.80;95.50;;;;;;5099500;28;20227;-64
2022/02/18 04:23:32;;;;;;;12.32;4.55;;;8.80;95.70;;;;;;5100833;28;20547;-64
2022/02/18 04:25:59;;;;;;;8.43;5.43;;;8.80;95.90;;;;;;5106062;28;20216;-64
2022/02/18 04:28:25;;;;;;;17.55;6.25;;;8.80;95.90;;;;;;5106020;28;20226;-64
2022/02/18 04:30:52;;;;;;;18.15;10.15;;;8.70;96.00;;;;;;5099190;28;20238;-64
2022/02/18 04:33:19;;;;;;;4.97;3.03;;;8.70;96.10;;;;;;5100494;28;20700;-64
2022/02/18 04:35:46;;;;;;;6.93;4.15;;;8.70;96.00;;;;;;5106280;28;20235;-64
2022/02/18 04:38:13;;;;;;;7.65;4.88;;;8.80;96.10;;;;;;5106282;28;20218;-64
2022/02/18 04:40:41;;;;;;;10.80;4.70;;;8.70;96.10;;;;;;5099371;28;20227;-64
2022/02/18 04:43:14;;;;;;;13.50;7.00;;;8.70;96.20;;;;;;5113073;28;20673;-64
2022/02/18 04:45:47;;;;;;;9.30;6.20;;;8.70;96.20;;;;;;5100043;27;20219;-64
2022/02/18 04:48:14;;;;;;;16.67;9.45;;;8.70;96.40;;;;;;5112623;28;20254;-64
2022/02/18 04:50:40;;;;;;;14.85;6.03;;;8.70;96.50;;;;;;5102755;28;20665;-64
2022/02/18 04:53:07;;;;;;;9.05;5.97;;;8.70;96.60;;;;;;5098115;28;20689;-64
2022/02/18 04:55:34;;;;;;;17.83;8.68;;;8.70;96.60;;;;;;5112891;28;20258;-65
2022/02/18 04:58:02;;;;;;;16.10;8.40;;;8.70;96.70;;;;;;5099310;28;20234;-64
2022/02/18 05:00:30;;;;;;;8.40;2.97;;;8.70;96.80;;;;;;5102197;28;20224;-64
2022/02/18 05:02:56;;;;;;;5.90;2.55;;;8.70;96.60;;;;;;5105692;28;20223;-64
2022/02/18 05:05:24;;;;;;;13.77;6.03;;;8.70;96.50;;;;;;5103606;28;20692;-64
2022/02/18 05:07:50;;;;;;;9.50;3.55;;;8.70;96.80;;;;;;5098658;28;20242;-64
2022/02/18 05:10:17;;;;;;;5.75;3.92;;;8.70;96.70;;;;;;5112805;28;20223;-64
2022/02/18 05:12:44;;;;;;;6.82;3.92;;;8.60;96.80;;;;;;5098703;28;20219;-64
2022/02/18 05:15:12;;;;;;;3.90;3.00;;;8.60;96.80;;;;;;5113207;27;20722;-64
2022/02/18 05:17:39;;;;;;;10.23;3.88;;;8.60;96.90;;;;;;5116668;27;20234;-64
2022/02/18 05:20:07;;;;;;;7.95;3.70;;;8.60;96.90;;;;;;5104767;28;20677;-64
2022/02/18 05:22:34;;;;;;;6.35;3.08;;;8.60;97.00;;;;;;5115280;27;20233;-64
2022/02/18 05:25:01;;;;;;;8.68;3.67;;;8.60;97.00;;;;;;5116587;28;20259;-64
2022/02/18 05:27:27;;;;;;;5.55;2.25;;;8.60;97.00;;;;;;5103221;28;20226;-64
2022/02/18 05:29:54;;;;;;;15.40;8.07;;;8.60;97.10;;;;;;5103733;27;20546;-64
2022/02/18 05:32:22;;;;;;;8.55;5.07;;;8.50;97.20;;;;;;5110047;28;20223;-64
2022/02/18 05:34:49;;;;;;;9.45;6.43;;;8.50;97.30;;;;;;5109265;28;20218;-64
2022/02/18 05:37:17;;;;;;;6.75;4.85;;;8.50;97.50;;;;;;5103089;27;20227;-64
2022/02/18 05:39:43;;;;;;;7.65;3.60;;;8.50;97.60;;;;;;5102749;28;20232;-64
2022/02/18 05:42:10;;;;;;;10.93;5.25;;;8.50;97.60;;;;;;5110048;28;20542;-64
2022/02/18 05:44:37;;;;;;;7.07;3.92;;;8.50;97.60;;;;;;5109455;27;20226;-64
2022/02/18 05:47:05;;;;;;;9.40;5.30;;;8.50;97.70;;;;;;5114210;27;20233;-64
2022/02/18 05:49:34;;;;;;;5.40;3.17;;;8.50;97.80;;;;;;5115606;27;20227;-64
2022/02/18 05:52:00;;;;;;;6.72;3.03;;;8.50;97.70;;;;;;5108663;27;20365;-64
2022/02/18 05:54:27;;;;;;;12.25;5.47;;;8.40;97.80;;;;;;5095439;28;20237;-64
2022/02/18 05:56:54;;;;;;;7.35;3.45;;;8.40;97.90;;;;;;5094575;28;20231;-64
2022/02/18 05:59:21;;;;;;;5.28;3.85;;;8.40;98.00;;;;;;5095787;28;20238;-64
2022/02/18 06:01:49;;;;;;;9.45;4.28;;;8.40;98.10;;;;;;5095542;28;20231;-64
2022/02/18 06:04:16;;;;;;;7.45;3.80;;;8.40;98.30;;;;;;5094710;28;20573;-64
2022/02/18 06:06:45;;;;;;;5.20;3.42;;;8.40;98.40;;;;;;5093451;28;20234;-65
2022/02/18 06:09:13;;;;;;;6.15;4.40;;;8.40;98.50;;;;;;5094183;28;20234;-65
2022/02/18 06:11:40;;;;;;;9.68;3.85;;;8.40;98.60;;;;;;5093786;28;20681;-65
2022/02/18 06:14:07;;;;;;;6.15;4.05;;;8.40;98.50;;;;;;5093819;28;20721;-65
2022/02/18 06:16:34;;;;;;;13.50;4.53;;;8.40;98.60;;;;;;5093928;28;20565;-65
2022/02/18 06:19:03;;;;;;;7.68;4.13;;;8.40;98.60;;;;;;5094948;28;20674;-65
2022/02/18 06:21:30;;;;;;;9.38;5.97;;;8.40;98.80;;;;;;5095789;28;20263;-65
2022/02/18 06:23:59;;;;;;;11.35;4.32;;;8.40;98.90;;;;;;5095090;28;20669;-65
2022/02/18 06:26:25;;;;;;;5.90;3.65;;;8.40;99.00;;;;;;5095373;28;20224;-65
2022/02/18 06:28:52;;;;;;;5.95;3.30;;;8.40;99.00;;;;;;5094381;28;20689;-65
2022/02/18 06:31:19;;;;;;;6.20;3.53;;;8.50;99.00;;;;;;5095163;28;20227;-65
2022/02/18 06:33:46;;;;;;;13.50;3.67;;;8.50;99.10;;;;;;5093825;28;20273;-65
2022/02/18 06:36:13;;;;;;;12.52;3.67;;;8.50;99.10;;;;;;5095583;28;20228;-63
2022/02/18 06:38:42;;;;;;;7.47;3.78;;;8.50;99.20;;;;;;5095261;28;20224;-63
2022/02/18 06:41:11;;;;;;;14.63;3.90;;;8.50;99.40;;;;;;5095057;28;20227;-65
2022/02/18 06:43:37;;;;;;;8.88;4.72;;;8.50;99.40;;;;;;5095369;28;20548;-65
2022/02/18 06:46:04;;;;;;;8.40;3.70;;;8.50;99.40;;;;;;5094755;28;20228;-65
2022/02/18 06:48:32;;;;;;;6.75;3.33;;;8.50;99.40;;;;;;5095384;28;20593;-65
2022/02/18 06:50:59;;;;;;;8.65;3.55;;;8.50;99.50;;;;;;5094667;28;20232;-66
2022/02/18 06:53:26;;;;;;;6.88;3.20;;;8.50;99.60;;;;;;5094987;28;20223;-65
2022/02/18 06:55:53;;;;;;;10.75;3.45;;;8.60;99.60;;;;;;5094405;28;20612;-64
2022/02/18 06:58:22;;;;;;;5.68;4.13;;;8.50;99.50;;;;;;5095236;28;20728;-65
2022/02/18 07:00:51;;;;;;;10.88;3.28;;;8.50;99.60;;;;;;5094507;28;20246;-65
2022/02/18 07:03:18;;;;;;;8.98;3.80;;;8.60;99.70;;;;;;5095035;28;20445;-64
2022/02/18 07:05:45;;;;;;;9.90;6.47;;;8.50;99.80;;;;;;5094764;28;20224;-64
2022/02/18 07:08:12;;;;;;;11.20;6.15;;;8.50;99.90;;;;;;5094297;28;20298;-65
2022/02/18 07:10:40;;;;;;;8.45;5.32;;;8.50;99.90;;;;;;5094750;28;20228;-64
2022/02/18 07:13:07;;;;;;;12.63;5.97;;;8.50;99.90;;;;;;5094525;28;20300;-65
2022/02/18 07:15:36;;;;;;;11.77;6.28;;;8.50;99.90;;;;;;5094588;28;20686;-65
2022/02/18 07:18:03;;;;;;;8.32;5.20;;;8.60;99.90;;;;;;5094232;28;20223;-65
2022/02/18 07:20:30;;;;;;;11.27;5.40;;;8.60;99.90;;;;;;5094519;28;20227;-64
2022/02/18 07:22:57;;;;;;;9.60;6.38;;;8.50;99.90;;;;;;5093910;28;20318;-65
2022/02/18 07:25:24;;;;;;;11.95;6.15;;;8.60;99.90;;;;;;5094542;28;20228;-64
2022/02/18 07:27:51;;;;;;;11.00;4.45;;;8.60;99.90;;;;;;5094044;28;20285;-64
2022/02/18 07:30:18;;;;;;;8.75;5.22;;;8.70;99.90;;;;;;5094142;28;20223;-65
2022/02/18 07:32:46;;;;;;;7.65;5.35;;;8.70;99.90;;;;;;5094474;28;20277;-64
2022/02/18 07:35:13;;;;;;;7.60;5.55;;;8.70;99.90;;;;;;5094092;28;20295;-64
2022/02/18 07:37:42;;;;;;;11.07;6.30;;;8.70;99.90;;;;;;5094036;28;20224;-65
2022/02/18 07:40:12;;;;;;;10.38;6.60;;;8.80;99.90;;;;;;5093498;28;20239;-65
2022/02/18 07:42:39;;;;;;;8.40;6.25;;;8.70;99.90;;;;;;5094153;28;20224;-64
2022/02/18 07:45:07;;;;;;;8.07;5.30;;;8.80;99.90;;;;;;5093500;28;20219;-65
2022/02/18 07:47:34;;;;;;;10.05;6.00;;;8.80;99.90;;;;;;5094232;28;20228;-65
2022/02/18 07:50:02;;;;;;;8.23;4.75;;;8.90;99.90;;;;;;5093411;28;20233;-65
2022/02/18 07:52:29;;;;;;;11.20;5.85;;;9.00;99.90;;;;;;5093664;28;20227;-65
2022/02/18 07:54:56;;;;;;;9.40;7.95;;;9.00;99.90;;;;;;5093389;28;20220;-65
2022/02/18 07:57:23;;;;;;;14.05;8.30;;;9.00;99.90;;;;;;5093953;28;20235;-65
2022/02/18 07:59:50;;;;;;;14.02;9.63;;;9.10;99.90;;;;;;5093696;28;20272;-64
2022/02/18 08:02:17;;;;;;;15.90;10.25;;;9.10;99.90;;;;;;5093602;28;20230;-64
2022/02/18 08:04:44;;;;;;;17.23;12.50;;;9.20;99.90;;;;;;5093448;28;20251;-64
2022/02/18 08:07:12;;;;;;;15.52;7.28;;;9.20;99.90;;;;;;5093125;27;20227;-64
2022/02/18 08:09:39;;;;;;;12.80;7.00;;;9.20;99.90;;;;;;5093698;28;20220;-64
2022/02/18 08:12:07;;;;;;;10.80;4.57;;;9.20;99.90;;;;;;5093065;28;20238;-64
2022/02/18 08:14:34;;;;;;;10.52;4.93;;;9.30;99.90;;;;;;5093502;28;20681;-65
2022/02/18 08:17:01;;;;;;;9.02;4.75;;;9.40;99.90;;;;;;5093230;28;20238;-64
2022/02/18 08:19:28;;;;;;;8.95;4.70;;;9.40;99.90;;;;;;5093352;28;20234;-65
2022/02/18 08:21:56;;;;;;;13.10;6.65;;;9.50;99.90;;;;;;5092757;28;20238;-64
2022/02/18 08:24:25;;;;;;;12.60;7.22;;;9.50;99.90;;;;;;5093310;28;20227;-64
2022/02/18 08:26:53;;;;;;;11.63;6.30;;;9.60;99.90;;;;;;5093333;28;20220;-65
2022/02/18 08:29:21;;;;;;;9.27;5.35;;;9.60;99.90;;;;;;5092996;28;20991;-65
2022/02/18 08:31:48;;;;;;;9.40;4.78;;;9.60;99.90;;;;;;5093251;28;20244;-65
2022/02/18 08:34:15;;;;;;;14.93;8.13;;;9.60;99.90;;;;;;5092567;28;20223;-65
2022/02/18 08:36:42;;;;;;;13.02;6.38;;;9.70;99.90;;;;;;5093108;28;20242;-65
2022/02/18 08:39:09;;;;;;;7.85;5.05;;;9.70;99.90;;;;;;5092585;28;20219;-64
2022/02/18 08:41:38;;;;;;;10.88;4.78;;;9.70;99.90;;;;;;5092982;28;20227;-64
2022/02/18 08:44:06;;;;;;;10.23;4.55;;;9.80;99.90;;;;;;5092533;28;20314;-64
2022/02/18 08:46:33;;;;;;;9.00;5.20;;;9.70;99.90;;;;;;5093034;28;20239;-66
2022/02/18 08:49:03;;;;;;;13.73;5.20;;;9.80;99.90;;;;;;5092449;28;20223;-64
2022/02/18 08:51:30;;;;;;;7.80;5.93;;;9.80;99.90;;;;;;5092397;28;20227;-64
2022/02/18 08:53:57;;;;;;;8.75;4.80;;;9.80;99.90;;;;;;5092555;28;20275;-65
2022/02/18 08:56:26;;;;;;;7.53;4.10;;;9.90;99.90;;;;;;5092604;28;20231;-65
2022/02/18 08:58:54;;;;;;;7.13;4.20;;;10.00;99.50;;;;;;5093103;28;20223;-65
2022/02/18 09:01:21;;;;;;;13.18;5.18;;;10.00;99.40;;;;;;5092515;28;20247;-65
2022/02/18 09:03:48;;;;;;;8.63;4.28;;;10.00;99.10;;;;;;5092616;28;20224;-64
2022/02/18 09:06:15;;;;;;;12.10;5.10;;;10.00;99.10;;;;;;5092251;28;20224;-65
2022/02/18 09:08:41;;;;;;;8.73;4.35;;;10.10;99.00;;;;;;5092862;28;20678;-65
2022/02/18 09:11:08;;;;;;;9.98;4.05;;;10.10;99.00;;;;;;5092401;28;20658;-65
2022/02/18 09:13:35;;;;;;;10.73;4.00;;;10.20;99.10;;;;;;5093001;28;20569;-65
2022/02/18 09:16:04;;;;;;;9.48;4.40;;;10.20;99.00;;;;;;5092151;28;20716;-64
2022/02/18 09:18:30;;;;;;;12.45;5.82;;;10.30;99.00;;;;;;5092714;28;20555;-65
2022/02/18 09:20:57;;;;;;;9.88;4.15;;;10.30;98.70;;;;;;5092701;28;20228;-64
2022/02/18 09:23:24;;;;;;;8.45;4.18;;;10.40;98.70;;;;;;5092330;28;20641;-64
2022/02/18 09:25:51;;;;;;;6.28;4.25;;;10.40;98.70;;;;;;5092634;28;20230;-65
2022/02/18 09:28:18;;;;;;;6.65;4.43;;;10.40;98.60;;;;;;5092431;28;20220;-65
2022/02/18 09:30:47;;;;;;;7.68;5.05;;;10.50;98.50;;;;;;5092572;28;20265;-65
2022/02/18 09:33:17;;;;;;;6.82;4.93;;;10.50;98.20;;;;;;5092227;28;20315;-65
2022/02/18 09:35:44;;;;;;;7.53;4.45;;;10.50;98.30;;;;;;5092730;28;20384;-66
2022/02/18 09:38:12;;;;;;;8.65;4.55;;;10.50;98.40;;;;;;5092002;28;20247;-65
2022/02/18 09:40:39;;;;;;;6.45;5.25;;;10.50;98.40;;;;;;5092336;28;20219;-65
2022/02/18 09:43:06;;;;;;;7.85;4.75;;;10.60;98.40;;;;;;5092137;28;20234;-65
2022/02/18 09:45:33;;;;;;;11.73;5.07;;;10.60;98.30;;;;;;5092388;28;20288;-65
2022/02/18 09:48:01;;;;;;;9.65;5.38;;;10.60;97.90;;;;;;5092306;28;20561;-66
2022/02/18 09:50:30;;;;;;;7.10;5.05;;;10.60;98.10;;;;;;5092070;28;20231;-64
2022/02/18 09:52:57;;;;;;;14.25;4.60;;;10.60;97.80;;;;;;5092197;28;20250;-65
2022/02/18 09:55:24;;;;;;;8.70;4.18;;;10.60;97.80;;;;;;5091573;28;20232;-65
2022/02/18 09:57:56;;;;;;;8.48;4.55;;;10.60;98.00;;;;;;5092336;28;20235;-66
2022/02/18 10:00:23;;;;;;;6.78;4.32;;;10.60;97.90;;;;;;5091719;28;20235;-65
2022/02/18 10:02:50;;;;;;;13.15;8.15;;;10.60;97.80;;;;;;5093625;28;20745;-64
2022/02/18 10:05:17;;;;;;;7.40;4.57;;;10.50;97.70;;;;;;5095830;28;20224;-64
2022/02/18 10:08:05;;;;;;;8.20;3.80;;;10.50;97.60;;;;;;5095993;28;20238;-65
2022/02/18 10:10:32;;;;;;;8.57;3.63;;;10.50;97.60;;;;;;5095713;28;20223;-65
2022/02/18 10:12:59;;;;;;;6.15;3.30;;;10.50;97.70;;;;;;5095694;28;20231;-65
2022/02/18 10:15:26;;;;;;;7.82;3.47;;;10.50;97.70;;;;;;5095359;28;20235;-65
2022/02/18 10:18:00;;;;;;;15.40;6.25;;;10.50;97.60;;;;;;5095772;28;20230;-65
2022/02/18 10:20:29;;;;;;;14.02;7.05;;;10.50;97.70;;;;;;5095127;28;20322;-64
2022/02/18 10:22:58;;;;;;;12.68;6.50;;;10.70;97.80;;;;;;5095660;28;20219;-65
2022/02/18 10:25:28;;;;;;;8.70;6.57;;;10.60;97.80;;;;;;5095032;28;20230;-64
2022/02/18 10:27:55;;;;;;;12.80;3.58;;;10.70;97.70;;;;;;5095633;28;20222;-65
2022/02/18 10:30:25;;;;;;;8.35;4.35;;;10.70;97.60;;;;;;5095162;28;20231;-65
2022/02/18 10:32:53;;;;;;;7.20;4.53;;;10.70;97.50;;;;;;5095546;28;20700;-65
2022/02/18 10:35:22;;;;;;;8.90;3.88;;;10.80;97.60;;;;;;5094874;28;20313;-65
2022/02/18 10:37:53;;;;;;;9.48;3.40;;;10.80;97.70;;;;;;5095445;28;20281;-65
2022/02/18 10:40:21;;;;;;;7.28;3.10;;;10.80;97.60;;;;;;5094775;28;20231;-65
2022/02/18 10:42:51;;;;;;;4.93;2.85;;;10.80;97.50;;;;;;5095131;28;20220;-65
2022/02/18 10:45:20;;;;;;;10.32;3.50;;;10.80;97.60;;;;;;5094798;28;20228;-65
2022/02/18 10:47:48;;;;;;;9.15;3.60;;;10.80;97.70;;;;;;5095036;28;20699;-66
2022/02/18 10:50:17;;;;;;;9.35;3.58;;;10.80;97.60;;;;;;5094514;28;20228;-64
2022/02/18 10:53:04;;;;;;;5.88;2.88;;;10.90;97.60;;;;;;5095015;28;20307;-64
2022/02/18 10:55:31;;;;;;;7.35;3.40;;;10.80;97.40;;;;;;5094500;28;20223;-64
2022/02/18 10:58:05;;;;;;;9.07;3.88;;;10.90;97.60;;;;;;5095151;28;20215;-64
2022/02/18 11:00:32;;;;;;;6.25;2.90;;;10.90;97.50;;;;;;5094268;28;20705;-65
2022/02/18 11:02:59;;;;;;;12.38;2.97;;;10.90;97.50;;;;;;5094750;28;20220;-64
2022/02/18 11:05:28;;;;;;;5.90;3.10;;;10.80;97.30;;;;;;5101016;27;20225;-64
2022/02/18 11:07:55;;;;;;;7.93;2.90;;;10.90;97.60;;;;;;5094240;28;20739;-66
2022/02/18 11:10:33;;;;;;;6.05;2.80;;;10.90;97.60;;;;;;5093806;28;20277;-65
2022/02/18 11:13:00;;;;;;;4.63;2.90;;;10.90;97.60;;;;;;5112942;27;20215;-64
2022/02/18 11:15:30;;;;;;;8.13;2.92;;;10.80;97.40;;;;;;5111258;27;20241;-65
2022/02/18 11:17:58;;;;;;;4.63;2.40;;;10.90;97.50;;;;;;5107452;27;20230;-64
2022/02/18 11:20:25;;;;;;;5.65;3.75;;;10.80;97.20;;;;;;5110944;27;20227;-64
2022/02/18 11:22:54;;;;;;;7.07;2.38;;;10.80;96.80;;;;;;5106606;27;20219;-64
2022/02/18 11:25:22;;;;;;;4.15;3.05;;;10.80;96.70;;;;;;5105380;27;20303;-64
2022/02/18 11:27:49;;;;;;;9.07;5.78;;;10.70;96.50;;;;;;5103122;27;20222;-65
2022/02/18 11:30:16;;;;;;;8.48;4.25;;;10.70;96.80;;;;;;5101840;27;20219;-65
2022/02/18 11:32:55;;;;;;;10.27;8.48;;;10.70;98.00;;;;;;5117560;27;20302;-65
2022/02/18 11:35:38;;;;;;;3.90;2.17;;;10.60;98.60;;;;;;5106761;27;20219;-65
2022/02/18 11:38:43;;;;;;;3.33;2.05;;;10.50;99.30;;;;;;5111589;27;20211;-66
2022/02/18 11:41:26;;;;;;;6.90;2.30;;;10.40;99.90;;;;;;5112506;27;20284;-65
2022/02/18 11:43:55;;;;;;;5.40;2.42;;;10.30;99.90;;;;;;5106500;27;20277;-64
2022/02/18 11:46:23;;;;;;;7.22;3.42;;;10.30;99.90;;;;;;5093532;28;20235;-64
2022/02/18 11:48:53;;;;;;;6.85;2.78;;;10.30;99.90;;;;;;5093280;28;20224;-64
2022/02/18 11:51:23;;;;;;;5.63;2.53;;;10.20;99.90;;;;;;5093139;28;20249;-64
2022/02/18 11:53:52;;;;;;;6.38;2.88;;;10.20;99.90;;;;;;5101006;28;20547;-64
2022/02/18 11:56:40;;;;;;;5.57;2.70;;;10.20;99.90;;;;;;5113714;27;20310;-64
2022/02/18 11:59:08;;;;;;;4.20;2.75;;;10.10;99.90;;;;;;5109090;27;20226;-64
2022/02/18 12:02:08;;;;;;;8.20;2.60;;;10.10;99.90;;;;;;5093621;28;20623;-65
2022/02/18 12:04:41;;;;;;;6.78;3.22;;;10.10;99.90;;;;;;5051549;28;20272;-65
2022/02/18 12:07:30;;;;;;;4.70;3.03;;;10.10;99.90;;;;;;5085988;28;21121;-65
2022/02/18 12:10:08;;;;;;;4.40;2.75;;;10.10;99.90;;;;;;5102903;27;20269;-65
2022/02/18 12:12:37;;;;;;;8.32;3.08;;;10.10;99.90;;;;;;5108374;27;20219;-64
2022/02/18 12:15:12;;;;;;;4.03;2.60;;;10.20;99.90;;;;;;5108758;27;20227;-65
2022/02/18 12:17:41;;;;;;;3.80;3.25;;;10.20;99.90;;;;;;5104210;27;20217;-65
2022/02/18 12:20:15;;;;;;;6.97;3.28;;;10.20;99.90;;;;;;5108020;27;20233;-65
2022/02/18 12:22:42;;;;;;;7.45;3.10;;;10.30;99.90;;;;;;5105830;27;20215;-65
2022/02/18 12:25:19;;;;;;;8.95;3.25;;;10.20;99.90;;;;;;5105790;27;20215;-65
2022/02/18 12:27:46;;;;;;;5.95;2.78;;;10.20;99.90;;;;;;5106647;27;20285;-65
2022/02/18 12:30:45;;;;;;;5.80;2.90;;;10.20;99.90;;;;;;5107010;27;20222;-65
2022/02/18 12:33:12;;;;;;;6.82;3.10;;;10.20;99.90;;;;;;5110004;27;20211;-65
2022/02/18 12:35:43;;;;;;;4.55;2.58;;;10.20;99.90;;;;;;5109596;27;20296;-65
2022/02/18 12:38:11;;;;;;;3.33;2.88;;;10.20;99.90;;;;;;5104514;27;20307;-65
2022/02/18 12:40:41;;;;;;;9.13;2.58;;;10.20;99.90;;;;;;5108481;27;20223;-65
2022/02/18 12:43:14;;;;;;;6.50;3.63;;;10.30;99.90;;;;;;5115144;27;20228;-65
2022/02/18 12:45:45;;;;;;;3.67;2.90;;;10.20;99.90;;;;;;5108183;27;20521;-65
2022/02/18 12:48:12;;;;;;;4.15;2.58;;;10.30;99.90;;;;;;5101832;27;20219;-65
2022/02/18 12:50:43;;;;;;;6.53;2.58;;;10.30;99.90;;;;;;5108482;27;20676;-65
2022/02/18 12:53:10;;;;;;;7.35;4.38;;;10.30;99.90;;;;;;5108114;27;20230;-65
2022/02/18 12:55:38;;;;;;;8.02;5.43;;;10.30;99.90;;;;;;5105588;27;20231;-65